Time;durP1;ratioP1;P1;durP2;ratioP2;P2;SDS_P1;SDS_P2;PMS_P1;PMS_P2;Temp;Humidity;BMP_temperature;BMP_pressure;BME280_temperature;BME280_humidity;BME280_pressure;Samples;Min_cycle;Max_cycle;Signal;HPM_P1;HPM_P2
2023/01/25 00:00:52;;;;;;;;;;;23.70;29.70;;;;;;454138;262;1623;-43
2023/01/25 00:02:53;;;;;;;;;;;23.80;29.70;;;;;;447227;265;2778;-43
2023/01/25 00:04:54;;;;;;;;;;;23.80;29.70;;;;;;447066;266;1676;-43
2023/01/25 00:06:56;;;;;;;;;;;23.80;29.70;;;;;;447151;266;1303;-44
2023/01/25 00:08:57;;;;;;;;;;;23.80;29.70;;;;;;446865;267;1786;-44
2023/01/25 00:10:58;;;;;;;;;;;23.80;29.70;;;;;;446808;266;1815;-43
2023/01/25 00:13:00;;;;;;;;;;;23.80;29.70;;;;;;446774;266;2187;-43
2023/01/25 00:15:01;;;;;;;;;;;23.80;29.70;;;;;;446748;266;2225;-44
2023/01/25 00:17:02;;;;;;;;;;;23.80;29.80;;;;;;446676;267;1735;-44
2023/01/25 00:19:04;;;;;;;;;;;23.70;29.90;;;;;;446646;267;1880;-43
2023/01/25 00:21:05;;;;;;;;;;;23.50;30.00;;;;;;446631;267;1809;-43
2023/01/25 00:23:06;;;;;;;;;;;23.30;30.30;;;;;;446634;266;1768;-43
2023/01/25 00:25:08;;;;;;;;;;;23.10;30.50;;;;;;446650;266;1954;-43
2023/01/25 00:27:09;;;;;;;;;;;22.90;30.70;;;;;;446672;266;1752;-43
2023/01/25 00:29:10;;;;;;;;;;;22.80;30.90;;;;;;446689;267;1941;-43
2023/01/25 00:31:12;;;;;;;;;;;22.70;31.00;;;;;;446870;266;1733;-43
2023/01/25 00:33:13;;;;;;;;;;;22.60;31.20;;;;;;447001;266;1712;-43
2023/01/25 00:35:14;;;;;;;;;;;22.50;31.40;;;;;;446944;266;2408;-43
2023/01/25 00:37:16;;;;;;;;;;;22.40;31.30;;;;;;446840;266;1752;-43
2023/01/25 00:39:17;;;;;;;;;;;22.40;31.40;;;;;;446898;266;1691;-43
2023/01/25 00:41:18;;;;;;;;;;;22.30;31.60;;;;;;446762;267;2217;-43
2023/01/25 00:43:20;;;;;;;;;;;22.20;31.60;;;;;;446768;267;2150;-43
2023/01/25 00:45:21;;;;;;;;;;;22.20;31.70;;;;;;446717;267;2214;-43
2023/01/25 00:47:22;;;;;;;;;;;22.20;31.80;;;;;;446783;266;1811;-43
2023/01/25 00:49:23;;;;;;;;;;;22.10;31.80;;;;;;446828;266;2086;-43
2023/01/25 00:51:25;;;;;;;;;;;22.10;31.90;;;;;;446623;266;2111;-43
2023/01/25 00:53:26;;;;;;;;;;;22.10;31.90;;;;;;446574;267;1706;-43
2023/01/25 00:55:27;;;;;;;;;;;22.00;32.00;;;;;;446574;267;2220;-43
2023/01/25 00:57:29;;;;;;;;;;;22.00;32.00;;;;;;446714;266;1719;-43
2023/01/25 00:59:30;;;;;;;;;;;21.90;32.10;;;;;;446612;267;2680;-43
2023/01/25 01:01:32;;;;;;;;;;;21.90;32.10;;;;;;446587;266;1740;-43
2023/01/25 01:03:33;;;;;;;;;;;21.90;32.20;;;;;;446709;266;1940;-43
2023/01/25 01:05:35;;;;;;;;;;;21.90;32.20;;;;;;446503;267;1863;-43
2023/01/25 01:07:36;;;;;;;;;;;21.80;32.20;;;;;;446453;266;1747;-43
2023/01/25 01:09:37;;;;;;;;;;;21.80;32.30;;;;;;446433;267;1727;-43
2023/01/25 01:11:38;;;;;;;;;;;22.00;32.00;;;;;;446559;266;2012;-43
2023/01/25 01:13:40;;;;;;;;;;;22.20;31.60;;;;;;446563;266;2072;-43
2023/01/25 01:15:41;;;;;;;;;;;22.40;31.40;;;;;;446543;266;2684;-43
2023/01/25 01:17:42;;;;;;;;;;;22.40;31.30;;;;;;446629;266;2494;-44
2023/01/25 01:19:44;;;;;;;;;;;22.30;31.30;;;;;;446675;266;2435;-43
2023/01/25 01:21:45;;;;;;;;;;;22.30;31.50;;;;;;446698;266;1627;-43
2023/01/25 01:23:46;;;;;;;;;;;22.20;31.60;;;;;;446722;266;3368;-43
2023/01/25 01:25:47;;;;;;;;;;;22.00;31.70;;;;;;446799;266;2339;-43
2023/01/25 01:27:49;;;;;;;;;;;22.00;31.90;;;;;;446863;266;2183;-43
2023/01/25 01:29:50;;;;;;;;;;;21.90;32.00;;;;;;446793;266;2245;-43
2023/01/25 01:31:52;;;;;;;;;;;21.80;32.00;;;;;;446768;266;1984;-43
2023/01/25 01:33:53;;;;;;;;;;;21.80;32.20;;;;;;446603;267;2460;-43
2023/01/25 01:35:54;;;;;;;;;;;21.70;32.20;;;;;;446600;266;2181;-43
2023/01/25 01:37:55;;;;;;;;;;;21.70;32.30;;;;;;446602;266;1740;-43
2023/01/25 01:39:57;;;;;;;;;;;21.60;32.40;;;;;;446640;266;2168;-43
2023/01/25 01:41:58;;;;;;;;;;;21.60;32.40;;;;;;446673;266;1705;-43
2023/01/25 01:43:59;;;;;;;;;;;21.60;32.40;;;;;;446629;266;1761;-43
2023/01/25 01:46:01;;;;;;;;;;;21.60;32.50;;;;;;446614;267;2752;-43
2023/01/25 01:48:02;;;;;;;;;;;21.60;32.50;;;;;;446612;266;1998;-43
2023/01/25 01:50:03;;;;;;;;;;;21.50;32.50;;;;;;446650;266;1831;-43
2023/01/25 01:52:05;;;;;;;;;;;21.50;32.50;;;;;;446620;266;1772;-42
2023/01/25 01:54:06;;;;;;;;;;;21.50;32.60;;;;;;446574;266;2348;-43
2023/01/25 01:56:08;;;;;;;;;;;21.40;32.60;;;;;;446595;266;2221;-43
2023/01/25 01:58:09;;;;;;;;;;;21.40;32.60;;;;;;444521;267;2235;-43
2023/01/25 02:00:10;;;;;;;;;;;21.40;32.60;;;;;;451625;264;1947;-43
2023/01/25 02:02:12;;;;;;;;;;;21.40;32.60;;;;;;453108;262;1813;-43
2023/01/25 02:04:13;;;;;;;;;;;21.40;32.60;;;;;;453033;262;1884;-43
2023/01/25 02:06:14;;;;;;;;;;;21.40;32.60;;;;;;444403;268;1851;-43
2023/01/25 02:08:16;;;;;;;;;;;21.40;32.60;;;;;;451677;262;1779;-43
2023/01/25 02:10:17;;;;;;;;;;;21.40;32.70;;;;;;464682;256;1525;-43
2023/01/25 02:12:18;;;;;;;;;;;21.30;32.70;;;;;;444095;266;1902;-43
2023/01/25 02:14:20;;;;;;;;;;;21.30;32.70;;;;;;451728;262;1969;-44
2023/01/25 02:16:21;;;;;;;;;;;21.30;32.70;;;;;;444508;267;2191;-43
2023/01/25 02:18:22;;;;;;;;;;;21.30;32.80;;;;;;451822;262;1764;-43
2023/01/25 02:20:23;;;;;;;;;;;21.30;32.80;;;;;;444316;267;1900;-43
2023/01/25 02:22:28;;;;;;;;;;;21.20;32.80;;;;;;451809;262;2908;-43
2023/01/25 02:24:26;;;;;;;;;;;21.20;32.80;;;;;;464778;256;2378;-43
2023/01/25 02:26:27;;;;;;;;;;;21.20;32.80;;;;;;465028;255;2144;-42
2023/01/25 02:28:29;;;;;;;;;;;21.20;32.80;;;;;;463114;256;1745;-43
2023/01/25 02:30:30;;;;;;;;;;;21.20;32.80;;;;;;463087;256;2190;-43
2023/01/25 02:32:31;;;;;;;;;;;21.20;32.80;;;;;;463042;256;1963;-43
2023/01/25 02:34:34;;;;;;;;;;;21.20;32.80;;;;;;463234;256;1715;-43
2023/01/25 02:36:34;;;;;;;;;;;21.20;32.80;;;;;;463011;257;2199;-43
2023/01/25 02:38:35;;;;;;;;;;;21.20;32.90;;;;;;444156;266;2457;-43
2023/01/25 02:40:37;;;;;;;;;;;21.10;32.80;;;;;;444308;267;1755;-43
2023/01/25 02:42:38;;;;;;;;;;;21.10;32.90;;;;;;444268;267;1777;-43
2023/01/25 02:44:40;;;;;;;;;;;21.10;32.90;;;;;;451718;262;1725;-43
2023/01/25 02:46:41;;;;;;;;;;;21.10;32.90;;;;;;464770;256;2210;-43
2023/01/25 02:48:42;;;;;;;;;;;21.10;32.90;;;;;;444266;266;1712;-43
2023/01/25 02:50:44;;;;;;;;;;;21.00;32.90;;;;;;451803;262;2136;-43
2023/01/25 02:52:45;;;;;;;;;;;21.10;33.00;;;;;;444612;267;1813;-43
2023/01/25 02:54:46;;;;;;;;;;;21.00;33.00;;;;;;451905;262;3114;-43
2023/01/25 02:56:48;;;;;;;;;;;21.00;33.00;;;;;;444321;267;2177;-43
2023/01/25 02:58:49;;;;;;;;;;;21.00;33.00;;;;;;444322;267;1822;-43
2023/01/25 03:00:50;;;;;;;;;;;21.00;33.00;;;;;;444234;267;1757;-43
2023/01/25 03:02:52;;;;;;;;;;;21.00;33.00;;;;;;444321;267;1909;-43
2023/01/25 03:04:53;;;;;;;;;;;21.00;33.00;;;;;;444287;267;1832;-43
2023/01/25 03:06:54;;;;;;;;;;;21.00;33.00;;;;;;444278;267;2248;-43
2023/01/25 03:08:56;;;;;;;;;;;21.00;33.00;;;;;;451858;262;2001;-43
2023/01/25 03:10:57;;;;;;;;;;;21.00;33.10;;;;;;444585;267;1642;-43
2023/01/25 03:12:58;;;;;;;;;;;21.00;33.00;;;;;;451794;262;1746;-42
2023/01/25 03:15:00;;;;;;;;;;;21.00;33.00;;;;;;444175;267;1934;-43
2023/01/25 03:17:01;;;;;;;;;;;21.00;33.10;;;;;;451938;262;2221;-43
2023/01/25 03:19:02;;;;;;;;;;;21.00;34.20;;;;;;464739;256;1754;-43
2023/01/25 03:21:04;;;;;;;;;;;20.90;33.10;;;;;;451961;261;2728;-43
2023/01/25 03:23:05;;;;;;;;;;;20.90;33.10;;;;;;451878;262;2098;-43
2023/01/25 03:25:07;;;;;;;;;;;20.90;33.30;;;;;;464810;256;2547;-43
2023/01/25 03:27:12;;;;;;;;;;;21.00;35.10;;;;;;463104;256;2215;-43
2023/01/25 03:29:12;;;;;;;;;;;21.00;33.50;;;;;;463027;256;2205;-43
2023/01/25 03:31:13;;;;;;;;;;;21.00;34.40;;;;;;463082;256;1787;-43
2023/01/25 03:33:15;;;;;;;;;;;20.90;37.60;;;;;;463346;256;2136;-42
2023/01/25 03:35:16;;;;;;;;;;;20.90;33.70;;;;;;444313;266;2021;-42
2023/01/25 03:37:17;;;;;;;;;;;20.90;33.40;;;;;;451834;262;2212;-43
2023/01/25 03:39:19;;;;;;;;;;;20.90;33.60;;;;;;464794;256;2199;-43
2023/01/25 03:41:20;;;;;;;;;;;20.90;33.40;;;;;;444228;266;1316;-43
2023/01/25 03:43:21;;;;;;;;;;;20.90;33.40;;;;;;444408;267;2098;-43
2023/01/25 03:45:23;;;;;;;;;;;21.10;33.60;;;;;;451817;262;2545;-43
2023/01/25 03:47:24;;;;;;;;;;;21.40;35.00;;;;;;464789;256;2169;-43
2023/01/25 03:49:26;;;;;;;;;;;21.50;34.30;;;;;;462992;256;1933;-43
2023/01/25 03:51:27;;;;;;;;;;;21.70;36.70;;;;;;463063;256;1734;-43
2023/01/25 03:53:28;;;;;;;;;;;21.90;33.70;;;;;;463041;256;2121;-43
2023/01/25 03:55:29;;;;;;;;;;;22.00;33.70;;;;;;463179;256;1728;-43
2023/01/25 03:57:31;;;;;;;;;;;22.00;33.60;;;;;;463029;256;2227;-43
2023/01/25 03:59:32;;;;;;;;;;;22.20;34.60;;;;;;463034;256;1905;-43
2023/01/25 04:01:33;;;;;;;;;;;22.30;33.80;;;;;;452016;261;1738;-43
2023/01/25 04:03:35;;;;;;;;;;;22.30;34.30;;;;;;464880;256;1922;-43
2023/01/25 04:05:36;;;;;;;;;;;22.30;32.80;;;;;;444450;266;1985;-43
2023/01/25 04:07:37;;;;;;;;;;;22.40;32.90;;;;;;444301;267;1757;-43
2023/01/25 04:09:39;;;;;;;;;;;22.40;34.40;;;;;;444472;267;2271;-43
2023/01/25 04:11:40;;;;;;;;;;;22.40;37.20;;;;;;444381;267;1916;-43
2023/01/25 04:13:41;;;;;;;;;;;22.50;43.00;;;;;;451696;262;1956;-44
2023/01/25 04:15:43;;;;;;;;;;;22.50;30.80;;;;;;464956;256;1656;-43
2023/01/25 04:17:44;;;;;;;;;;;22.50;30.70;;;;;;463094;256;2194;-43
2023/01/25 04:19:45;;;;;;;;;;;22.50;30.70;;;;;;444359;266;1811;-43
2023/01/25 04:21:47;;;;;;;;;;;22.50;30.60;;;;;;451913;262;1977;-43
2023/01/25 04:23:48;;;;;;;;;;;22.60;30.70;;;;;;464798;256;1701;-43
2023/01/25 04:25:49;;;;;;;;;;;22.60;30.60;;;;;;444433;266;2181;-43
2023/01/25 04:27:51;;;;;;;;;;;22.70;30.60;;;;;;444358;267;2008;-43
2023/01/25 04:29:52;;;;;;;;;;;22.70;30.70;;;;;;451935;262;1708;-44
2023/01/25 04:31:53;;;;;;;;;;;22.70;30.60;;;;;;464788;256;1745;-43
2023/01/25 04:33:55;;;;;;;;;;;22.80;30.70;;;;;;444222;266;1662;-43
2023/01/25 04:35:56;;;;;;;;;;;22.80;30.90;;;;;;451931;262;2193;-43
2023/01/25 04:37:57;;;;;;;;;;;22.90;31.20;;;;;;464877;256;2336;-44
2023/01/25 04:39:58;;;;;;;;;;;22.80;31.20;;;;;;463125;256;1984;-43
2023/01/25 04:42:00;;;;;;;;;;;22.90;31.50;;;;;;463060;256;1952;-43
2023/01/25 04:44:01;;;;;;;;;;;22.90;32.60;;;;;;444261;266;1725;-43
2023/01/25 04:46:03;;;;;;;;;;;23.00;36.30;;;;;;444270;267;2290;-43
2023/01/25 04:48:04;;;;;;;;;;;23.00;33.10;;;;;;444342;267;2901;-43
2023/01/25 04:50:06;;;;;;;;;;;23.00;32.30;;;;;;444272;267;1957;-43
2023/01/25 04:52:07;;;;;;;;;;;23.00;32.50;;;;;;444453;267;1898;-43
2023/01/25 04:54:08;;;;;;;;;;;23.00;31.20;;;;;;451923;262;1746;-44
2023/01/25 04:56:10;;;;;;;;;;;23.10;32.60;;;;;;464863;256;2205;-44
2023/01/25 04:58:11;;;;;;;;;;;23.10;33.10;;;;;;464738;256;1703;-43
2023/01/25 05:00:12;;;;;;;;;;;23.10;39.40;;;;;;444342;266;2146;-44
2023/01/25 05:02:14;;;;;;;;;;;23.00;30.20;;;;;;444382;267;2247;-43
2023/01/25 05:04:15;;;;;;;;;;;23.10;30.10;;;;;;444202;267;2202;-43
2023/01/25 05:06:16;;;;;;;;;;;23.10;30.10;;;;;;444199;267;2743;-43
2023/01/25 05:08:18;;;;;;;;;;;23.10;30.10;;;;;;451895;262;1934;-43
2023/01/25 05:10:19;;;;;;;;;;;23.10;30.20;;;;;;464813;256;1723;-43
2023/01/25 05:12:20;;;;;;;;;;;23.20;30.40;;;;;;444119;266;1860;-43
2023/01/25 05:14:22;;;;;;;;;;;23.20;31.20;;;;;;451710;262;1638;-43
2023/01/25 05:16:23;;;;;;;;;;;23.20;41.30;;;;;;464701;256;2211;-44
2023/01/25 05:18:24;;;;;;;;;;;23.20;30.10;;;;;;462963;256;1683;-43
2023/01/25 05:20:26;;;;;;;;;;;23.20;30.20;;;;;;463045;256;2113;-43
2023/01/25 05:22:27;;;;;;;;;;;23.20;30.20;;;;;;463049;256;1676;-43
2023/01/25 05:24:28;;;;;;;;;;;23.20;30.20;;;;;;463017;256;2707;-43
2023/01/25 05:28:49;;;;;;;;;;;23.30;30.40;;;;;;463093;257;2013;-43
2023/01/25 05:30:50;;;;;;;;;;;23.30;30.80;;;;;;462833;256;2123;-43
2023/01/25 05:32:52;;;;;;;;;;;23.30;31.80;;;;;;462865;256;2082;-44
2023/01/25 05:34:53;;;;;;;;;;;23.30;32.50;;;;;;444234;266;1588;-43
2023/01/25 05:36:54;;;;;;;;;;;23.30;32.70;;;;;;451791;262;2177;-43
2023/01/25 05:38:56;;;;;;;;;;;23.40;32.70;;;;;;464700;256;1889;-43
2023/01/25 05:40:57;;;;;;;;;;;23.50;33.30;;;;;;444294;266;2881;-43
2023/01/25 05:42:59;;;;;;;;;;;23.40;40.70;;;;;;444393;267;1864;-43
2023/01/25 05:45:00;;;;;;;;;;;23.40;30.60;;;;;;444261;267;1730;-43
2023/01/25 05:47:01;;;;;;;;;;;23.40;32.10;;;;;;451879;262;2143;-43
2023/01/25 05:49:03;;;;;;;;;;;23.60;39.70;;;;;;464819;256;1636;-43
2023/01/25 05:51:04;;;;;;;;;;;23.40;34.90;;;;;;444360;266;1912;-43
2023/01/25 05:53:06;;;;;;;;;;;23.40;49.20;;;;;;451910;262;1744;-43
2023/01/25 05:55:07;;;;;;;;;;;23.40;32.30;;;;;;444698;267;1775;-44
2023/01/25 05:57:08;;;;;;;;;;;23.50;33.10;;;;;;444214;267;2205;-43
2023/01/25 05:59:10;;;;;;;;;;;23.30;44.20;;;;;;451773;260;1894;-43
2023/01/25 06:01:11;;;;;;;;;;;23.40;30.00;;;;;;464582;256;1699;-43
2023/01/25 06:03:12;;;;;;;;;;;23.40;30.00;;;;;;462997;256;1873;-43
2023/01/25 06:05:14;;;;;;;;;;;23.40;30.00;;;;;;444058;266;2169;-43
2023/01/25 06:07:15;;;;;;;;;;;23.40;29.90;;;;;;451626;262;2200;-43
2023/01/25 06:09:17;;;;;;;;;;;23.40;30.00;;;;;;464519;256;1722;-44
2023/01/25 06:11:18;;;;;;;;;;;23.50;30.00;;;;;;443910;266;1689;-44
2023/01/25 06:13:21;;;;;;;;;;;23.50;29.90;;;;;;451598;262;2197;-43
2023/01/25 06:15:21;;;;;;;;;;;23.50;30.00;;;;;;464445;256;2566;-44
2023/01/25 06:17:22;;;;;;;;;;;23.50;30.00;;;;;;451545;261;2174;-44
2023/01/25 06:19:23;;;;;;;;;;;23.50;30.00;;;;;;444079;267;2056;-43
2023/01/25 06:21:24;;;;;;;;;;;23.50;30.00;;;;;;444186;267;1736;-44
2023/01/25 06:23:26;;;;;;;;;;;23.50;30.00;;;;;;444267;267;1748;-43
2023/01/25 06:25:27;;;;;;;;;;;23.50;30.00;;;;;;451804;262;1841;-44
2023/01/25 06:27:28;;;;;;;;;;;23.60;30.00;;;;;;464740;256;1751;-44
2023/01/25 06:29:30;;;;;;;;;;;23.70;30.20;;;;;;464917;255;1489;-43
2023/01/25 06:31:31;;;;;;;;;;;23.60;30.30;;;;;;463043;256;1894;-43
2023/01/25 06:33:32;;;;;;;;;;;23.60;30.40;;;;;;463055;256;1712;-43
2023/01/25 06:35:34;;;;;;;;;;;23.70;31.30;;;;;;462966;256;1731;-44
2023/01/25 06:37:35;;;;;;;;;;;23.70;31.40;;;;;;444317;266;2185;-44
2023/01/25 06:39:36;;;;;;;;;;;23.70;31.30;;;;;;444241;267;1903;-44
2023/01/25 06:41:38;;;;;;;;;;;23.60;31.70;;;;;;444336;267;1711;-43
2023/01/25 06:43:39;;;;;;;;;;;23.70;31.60;;;;;;451676;262;1691;-44
2023/01/25 06:45:40;;;;;;;;;;;23.60;31.10;;;;;;464780;256;2240;-43
2023/01/25 06:47:42;;;;;;;;;;;23.70;31.80;;;;;;444340;266;2236;-43
2023/01/25 06:49:43;;;;;;;;;;;23.70;32.20;;;;;;444180;267;1926;-43
2023/01/25 06:51:44;;;;;;;;;;;23.70;32.00;;;;;;444187;267;1888;-43
2023/01/25 06:53:46;;;;;;;;;;;23.70;32.30;;;;;;444121;267;1937;-43
2023/01/25 06:55:47;;;;;;;;;;;23.70;32.30;;;;;;444140;267;1867;-43
2023/01/25 06:57:48;;;;;;;;;;;23.70;32.20;;;;;;444052;267;2218;-43
2023/01/25 06:59:50;;;;;;;;;;;23.70;32.80;;;;;;444079;267;1891;-43
2023/01/25 07:01:51;;;;;;;;;;;23.80;32.20;;;;;;451681;262;1705;-43
2023/01/25 07:03:52;;;;;;;;;;;23.80;34.70;;;;;;464692;256;1829;-43
2023/01/25 07:05:54;;;;;;;;;;;23.70;30.80;;;;;;444049;266;1778;-44
2023/01/25 07:07:55;;;;;;;;;;;23.70;31.40;;;;;;451690;262;1878;-43
2023/01/25 07:09:57;;;;;;;;;;;23.80;31.00;;;;;;464611;256;2257;-43
2023/01/25 07:11:58;;;;;;;;;;;23.80;31.00;;;;;;444049;267;2188;-43
2023/01/25 07:13:59;;;;;;;;;;;23.80;32.80;;;;;;444031;267;3246;-43
2023/01/25 07:16:01;;;;;;;;;;;23.80;33.20;;;;;;451750;262;1686;-44
2023/01/25 07:18:02;;;;;;;;;;;23.70;41.20;;;;;;464588;256;2490;-44
2023/01/25 07:20:03;;;;;;;;;;;23.70;30.00;;;;;;444005;266;1727;-43
2023/01/25 07:22:05;;;;;;;;;;;23.80;30.00;;;;;;443938;267;1904;-44
2023/01/25 07:24:06;;;;;;;;;;;23.80;30.00;;;;;;444104;267;1905;-43
2023/01/25 07:26:07;;;;;;;;;;;23.80;30.00;;;;;;451625;262;2103;-44
2023/01/25 07:28:09;;;;;;;;;;;23.80;30.00;;;;;;464597;256;1721;-43
2023/01/25 07:30:10;;;;;;;;;;;23.80;30.00;;;;;;444124;266;1961;-43
2023/01/25 07:32:11;;;;;;;;;;;23.90;30.60;;;;;;451658;262;2209;-43
2023/01/25 07:34:13;;;;;;;;;;;23.90;31.70;;;;;;444496;267;2199;-44
2023/01/25 07:36:14;;;;;;;;;;;24.00;32.00;;;;;;451644;262;1694;-43
2023/01/25 07:38:16;;;;;;;;;;;24.00;40.20;;;;;;444097;267;2210;-43
2023/01/25 07:40:17;;;;;;;;;;;23.90;30.40;;;;;;444314;267;2009;-43
2023/01/25 07:42:18;;;;;;;;;;;23.80;30.10;;;;;;444048;267;1705;-43
2023/01/25 07:44:20;;;;;;;;;;;23.50;34.70;;;;;;444277;267;1741;-43
2023/01/25 07:46:22;;;;;;;;;;;23.40;32.10;;;;;;444024;267;1772;-43
2023/01/25 07:48:22;;;;;;;;;;;23.20;34.20;;;;;;443956;267;2704;-43
2023/01/25 07:50:24;;;;;;;;;;;23.00;35.10;;;;;;444148;267;1889;-43
2023/01/25 07:52:25;;;;;;;;;;;22.90;35.30;;;;;;444092;267;1700;-43
2023/01/25 07:54:26;;;;;;;;;;;22.80;35.40;;;;;;444129;267;1823;-43
2023/01/25 07:56:28;;;;;;;;;;;22.70;43.60;;;;;;451683;262;2166;-43
2023/01/25 07:58:29;;;;;;;;;;;22.60;33.30;;;;;;464297;256;2213;-43
2023/01/25 08:00:30;;;;;;;;;;;22.60;33.40;;;;;;462703;256;2321;-43
2023/01/25 08:02:32;;;;;;;;;;;22.50;37.30;;;;;;462697;256;2525;-43
2023/01/25 08:04:33;;;;;;;;;;;22.50;37.10;;;;;;462742;256;1914;-43
2023/01/25 08:06:37;;;;;;;;;;;22.40;37.60;;;;;;443854;266;1716;-43
2023/01/25 08:08:36;;;;;;;;;;;22.40;37.50;;;;;;443834;267;1697;-43
2023/01/25 08:10:37;;;;;;;;;;;22.30;38.40;;;;;;451437;262;2400;-43
2023/01/25 08:12:39;;;;;;;;;;;22.30;41.40;;;;;;464266;256;2204;-43
2023/01/25 08:14:41;;;;;;;;;;;22.30;35.30;;;;;;451479;261;1821;-43
2023/01/25 08:16:41;;;;;;;;;;;22.20;35.20;;;;;;443687;267;1821;-43
2023/01/25 08:18:43;;;;;;;;;;;22.20;35.80;;;;;;443851;267;2202;-42
2023/01/25 08:20:44;;;;;;;;;;;22.10;36.60;;;;;;451424;262;3109;-43
2023/01/25 08:22:45;;;;;;;;;;;22.10;37.40;;;;;;464287;256;1706;-43
2023/01/25 08:24:46;;;;;;;;;;;22.00;38.90;;;;;;443822;266;1740;-43
2023/01/25 08:26:48;;;;;;;;;;;22.00;37.60;;;;;;443811;267;2036;-43
2023/01/25 08:28:51;;;;;;;;;;;21.90;38.10;;;;;;443849;267;1684;-43
2023/01/25 08:30:50;;;;;;;;;;;22.00;37.60;;;;;;443831;267;2414;-43
2023/01/25 08:32:52;;;;;;;;;;;21.90;38.50;;;;;;444067;267;1785;-43
2023/01/25 08:34:53;;;;;;;;;;;22.10;37.70;;;;;;451525;262;1903;-43
2023/01/25 08:36:55;;;;;;;;;;;22.40;36.50;;;;;;464577;256;1861;-43
2023/01/25 08:38:56;;;;;;;;;;;22.40;37.10;;;;;;443955;266;2179;-43
2023/01/25 08:40:57;;;;;;;;;;;22.30;37.00;;;;;;444139;267;2142;-43
2023/01/25 08:42:58;;;;;;;;;;;22.30;35.80;;;;;;444097;267;1924;-43
2023/01/25 08:45:01;;;;;;;;;;;22.20;37.50;;;;;;451672;262;1659;-43
2023/01/25 08:47:01;;;;;;;;;;;22.00;37.50;;;;;;464644;256;2194;-43
2023/01/25 08:49:03;;;;;;;;;;;22.10;37.90;;;;;;444106;266;1876;-43
2023/01/25 08:51:04;;;;;;;;;;;21.90;37.80;;;;;;444074;267;1842;-43
2023/01/25 08:53:06;;;;;;;;;;;22.00;37.30;;;;;;451694;262;1888;-43
2023/01/25 08:55:07;;;;;;;;;;;22.00;37.50;;;;;;464632;256;1837;-43
2023/01/25 08:57:08;;;;;;;;;;;22.00;37.40;;;;;;462689;256;1976;-42
2023/01/25 08:59:09;;;;;;;;;;;22.00;36.90;;;;;;462910;256;2250;-43
2023/01/25 09:01:11;;;;;;;;;;;22.10;35.20;;;;;;462622;256;1449;-43
2023/01/25 09:03:12;;;;;;;;;;;22.00;38.30;;;;;;462591;256;1579;-43
2023/01/25 09:05:13;;;;;;;;;;;22.00;38.40;;;;;;462647;256;1914;-43
2023/01/25 09:07:15;;;;;;;;;;;22.10;37.00;;;;;;443760;266;1585;-43
2023/01/25 09:09:16;;;;;;;;;;;22.10;38.90;;;;;;443943;267;1763;-43
2023/01/25 09:11:17;;;;;;;;;;;22.10;38.70;;;;;;443993;267;1893;-43
2023/01/25 09:13:19;;;;;;;;;;;22.10;41.00;;;;;;443942;267;1850;-43
2023/01/25 09:15:21;;;;;;;;;;;22.20;44.70;;;;;;451742;262;1969;-43
2023/01/25 09:17:21;;;;;;;;;;;22.20;35.40;;;;;;464289;256;2265;-43
2023/01/25 09:19:23;;;;;;;;;;;22.10;36.10;;;;;;443959;266;2186;-43
2023/01/25 09:21:24;;;;;;;;;;;22.10;40.80;;;;;;443998;267;1695;-43
2023/01/25 09:23:25;;;;;;;;;;;22.10;37.90;;;;;;444143;267;1502;-43
2023/01/25 09:25:27;;;;;;;;;;;22.00;35.70;;;;;;451620;262;1866;-43
2023/01/25 09:27:28;;;;;;;;;;;22.10;39.20;;;;;;464367;256;1717;-43
2023/01/25 09:29:29;;;;;;;;;;;22.00;36.80;;;;;;462626;256;2351;-42
2023/01/25 09:31:31;;;;;;;;;;;22.00;39.50;;;;;;462651;256;1691;-42
2023/01/25 09:33:32;;;;;;;;;;;22.00;39.00;;;;;;462653;256;2540;-43
2023/01/25 09:35:34;;;;;;;;;;;22.00;41.20;;;;;;462468;256;2125;-43
2023/01/25 09:37:35;;;;;;;;;;;22.00;41.20;;;;;;462618;257;2137;-43
2023/01/25 09:39:36;;;;;;;;;;;22.00;39.60;;;;;;462519;256;2188;-43
2023/01/25 09:41:37;;;;;;;;;;;22.00;38.60;;;;;;461297;256;2943;-43
2023/01/25 09:43:39;;;;;;;;;;;22.10;41.50;;;;;;445822;266;2621;-43
2023/01/25 09:45:40;;;;;;;;;;;22.10;38.70;;;;;;446175;266;2105;-43
2023/01/25 09:47:41;;;;;;;;;;;22.10;38.20;;;;;;446320;266;1760;-43
2023/01/25 09:49:43;;;;;;;;;;;22.00;39.70;;;;;;446443;266;2203;-43
2023/01/25 09:51:44;;;;;;;;;;;21.90;43.30;;;;;;446390;266;1712;-43
2023/01/25 09:53:45;;;;;;;;;;;22.00;37.70;;;;;;446288;266;1976;-43
2023/01/25 09:55:49;;;;;;;;;;;22.10;38.10;;;;;;446335;266;1838;-43
2023/01/25 09:57:49;;;;;;;;;;;22.00;45.00;;;;;;446231;266;1710;-43
2023/01/25 09:59:49;;;;;;;;;;;22.10;35.00;;;;;;446359;266;2136;-43
2023/01/25 10:01:51;;;;;;;;;;;22.00;35.30;;;;;;446257;267;1759;-43
2023/01/25 10:03:52;;;;;;;;;;;22.00;36.00;;;;;;446440;266;1584;-43
2023/01/25 10:05:53;;;;;;;;;;;22.10;36.30;;;;;;446282;267;2230;-43
2023/01/25 10:07:55;;;;;;;;;;;22.00;38.10;;;;;;446208;266;1677;-43
2023/01/25 10:09:56;;;;;;;;;;;22.00;36.70;;;;;;446312;267;1983;-43
2023/01/25 10:11:57;;;;;;;;;;;22.10;37.50;;;;;;446239;266;1970;-43
2023/01/25 10:13:58;;;;;;;;;;;22.10;37.40;;;;;;446229;267;2212;-43
2023/01/25 10:16:00;;;;;;;;;;;22.10;38.30;;;;;;446246;267;1996;-43
2023/01/25 10:18:01;;;;;;;;;;;22.10;36.80;;;;;;446376;266;2177;-43
2023/01/25 10:20:04;;;;;;;;;;;22.00;39.50;;;;;;446389;266;2132;-43
2023/01/25 10:22:05;;;;;;;;;;;22.10;42.40;;;;;;446304;266;1753;-43
2023/01/25 10:24:06;;;;;;;;;;;22.10;39.70;;;;;;446241;266;1863;-43
2023/01/25 10:26:08;;;;;;;;;;;22.10;37.70;;;;;;446394;266;1725;-43
2023/01/25 10:28:09;;;;;;;;;;;22.10;37.60;;;;;;446421;266;1648;-43
2023/01/25 10:30:10;;;;;;;;;;;22.10;39.80;;;;;;446574;266;2103;-43
2023/01/25 10:32:11;;;;;;;;;;;22.10;39.90;;;;;;446443;267;2197;-43
2023/01/25 10:34:13;;;;;;;;;;;22.20;39.50;;;;;;446366;266;1921;-43
2023/01/25 10:36:15;;;;;;;;;;;22.10;37.70;;;;;;446357;266;2204;-43
2023/01/25 10:38:16;;;;;;;;;;;22.10;36.30;;;;;;446246;267;2244;-43
2023/01/25 10:40:17;;;;;;;;;;;22.10;38.00;;;;;;446082;266;1957;-43
2023/01/25 10:42:19;;;;;;;;;;;22.20;37.60;;;;;;446386;266;1733;-43
2023/01/25 10:44:23;;;;;;;;;;;22.20;39.60;;;;;;446065;266;1666;-43
2023/01/25 10:46:24;;;;;;;;;;;22.00;40.30;;;;;;446046;267;2450;-43
2023/01/25 10:48:26;;;;;;;;;;;22.10;40.40;;;;;;446070;266;1730;-43
2023/01/25 10:50:27;;;;;;;;;;;22.10;40.60;;;;;;446105;266;1919;-43
2023/01/25 10:52:29;;;;;;;;;;;22.00;39.00;;;;;;446151;266;2753;-43
2023/01/25 10:54:30;;;;;;;;;;;22.00;41.70;;;;;;446100;266;2051;-43
2023/01/25 10:56:31;;;;;;;;;;;22.00;42.30;;;;;;446197;267;1680;-43
2023/01/25 10:58:32;;;;;;;;;;;22.20;41.30;;;;;;446282;266;2208;-43
2023/01/25 11:00:34;;;;;;;;;;;22.20;42.50;;;;;;446191;266;1583;-43
2023/01/25 11:02:35;;;;;;;;;;;22.20;43.90;;;;;;446138;266;1616;-43
2023/01/25 11:04:38;;;;;;;;;;;22.10;37.70;;;;;;446186;266;1496;-43
2023/01/25 11:06:38;;;;;;;;;;;22.20;39.90;;;;;;446020;266;2153;-43
2023/01/25 11:08:40;;;;;;;;;;;22.30;43.90;;;;;;446386;266;1906;-43
2023/01/25 11:10:40;;;;;;;;;;;22.00;36.20;;;;;;446262;266;2393;-43
2023/01/25 11:12:42;;;;;;;;;;;22.00;37.00;;;;;;446139;266;1569;-44
2023/01/25 11:14:43;;;;;;;;;;;22.10;36.10;;;;;;446241;266;1744;-44
2023/01/25 11:16:44;;;;;;;;;;;22.10;35.20;;;;;;446365;266;2192;-43
2023/01/25 11:18:46;;;;;;;;;;;22.00;36.10;;;;;;446296;267;2240;-44
2023/01/25 11:20:47;;;;;;;;;;;22.00;36.20;;;;;;446410;266;1977;-44
2023/01/25 11:22:48;;;;;;;;;;;22.10;36.20;;;;;;446313;266;1525;-44
2023/01/25 11:24:50;;;;;;;;;;;22.00;36.00;;;;;;446261;266;3049;-44
2023/01/25 11:26:51;;;;;;;;;;;22.00;37.60;;;;;;446420;266;2345;-43
2023/01/25 11:28:52;;;;;;;;;;;22.00;37.70;;;;;;446428;267;1992;-44
2023/01/25 11:30:54;;;;;;;;;;;22.00;36.30;;;;;;446446;266;1918;-43
2023/01/25 11:32:55;;;;;;;;;;;22.00;36.60;;;;;;446391;267;2148;-44
2023/01/25 11:34:56;;;;;;;;;;;22.00;36.70;;;;;;446439;266;1883;-44
2023/01/25 11:36:58;;;;;;;;;;;22.00;37.20;;;;;;446317;266;2277;-44
2023/01/25 11:38:59;;;;;;;;;;;22.00;36.70;;;;;;446180;267;2189;-44
2023/01/25 11:41:00;;;;;;;;;;;22.00;37.70;;;;;;445958;266;2148;-44
2023/01/25 11:43:02;;;;;;;;;;;22.00;37.00;;;;;;446288;266;1770;-44
2023/01/25 11:45:03;;;;;;;;;;;22.00;38.90;;;;;;446183;266;1663;-44
2023/01/25 11:47:04;;;;;;;;;;;22.00;36.00;;;;;;445906;266;1380;-44
2023/01/25 11:49:06;;;;;;;;;;;22.00;36.30;;;;;;446007;266;1534;-43
2023/01/25 11:51:07;;;;;;;;;;;22.00;36.80;;;;;;445986;266;2048;-43
2023/01/25 11:53:08;;;;;;;;;;;22.00;37.10;;;;;;446092;267;2037;-44
2023/01/25 11:55:10;;;;;;;;;;;22.00;35.20;;;;;;446335;266;2137;-44
2023/01/25 11:57:11;;;;;;;;;;;22.00;36.80;;;;;;446356;266;1751;-44
2023/01/25 11:59:12;;;;;;;;;;;21.90;37.60;;;;;;446160;266;2292;-43